createdAt,value
2023-01-13T00:00:42.126Z,0.50
2023-01-13T00:01:43.905Z,0.30
2023-01-13T00:02:48.009Z,0.30
2023-01-13T00:03:50.205Z,0.30
2023-01-13T00:04:52.894Z,0.30
2023-01-13T00:05:54.665Z,0.40
2023-01-13T00:06:57.306Z,0.35
2023-01-13T00:07:59.008Z,0.30
2023-01-13T00:09:01.760Z,0.30
2023-01-13T00:10:03.790Z,0.40
2023-01-13T00:11:06.875Z,0.30
2023-01-13T00:12:08.612Z,0.40
2023-01-13T00:13:11.577Z,0.40
2023-01-13T00:14:13.287Z,0.22
2023-01-13T00:15:16.066Z,0.22
2023-01-13T00:16:18.599Z,0.35
2023-01-13T00:17:21.364Z,0.47
2023-01-13T00:18:24.467Z,0.30
2023-01-13T00:19:27.118Z,0.40
2023-01-13T00:20:29.806Z,0.40
2023-01-13T00:21:31.465Z,0.30
2023-01-13T00:22:34.929Z,0.40
2023-01-13T00:23:36.857Z,0.30
2023-01-13T00:24:39.505Z,0.30
2023-01-13T00:25:41.171Z,0.10
2023-01-13T00:26:43.830Z,0.35
2023-01-13T00:27:46.472Z,0.30
2023-01-13T00:28:48.349Z,0.25
2023-01-13T00:29:50.995Z,0.30
2023-01-13T00:30:52.676Z,0.30
2023-01-13T00:31:55.509Z,0.40
2023-01-13T00:32:57.255Z,0.20
2023-01-13T00:34:02.124Z,0.40
2023-01-13T00:35:04.390Z,0.20
2023-01-13T00:36:08.355Z,0.20
2023-01-13T00:37:12.959Z,0.30
2023-01-13T00:38:15.927Z,0.20
2023-01-13T00:39:17.587Z,0.35
2023-01-13T00:40:20.355Z,0.95
2023-01-13T00:41:23.645Z,0.35
2023-01-13T00:42:43.957Z,0.30
2023-01-13T00:43:46.039Z,0.20
2023-01-13T00:44:48.718Z,0.20
2023-01-13T00:45:51.462Z,0.28
2023-01-13T00:46:54.145Z,0.17
2023-01-13T00:47:55.974Z,0.30
2023-01-13T00:48:58.601Z,0.30
2023-01-13T00:50:01.610Z,0.30
2023-01-13T00:51:05.709Z,0.47
2023-01-13T00:52:07.377Z,0.43
2023-01-13T00:53:10.068Z,0.30
2023-01-13T00:54:11.762Z,0.20
2023-01-13T00:55:14.426Z,0.40
2023-01-13T00:56:19.979Z,0.40
2023-01-13T00:57:27.132Z,0.38
2023-01-13T00:58:28.968Z,0.10
2023-01-13T00:59:31.947Z,0.40
2023-01-13T01:00:33.723Z,0.40
2023-01-13T01:01:36.633Z,0.30
2023-01-13T01:02:38.420Z,0.28
2023-01-13T01:03:41.514Z,0.43
2023-01-13T01:04:43.174Z,0.20
2023-01-13T01:05:47.191Z,0.20
2023-01-13T01:06:49.854Z,0.10
2023-01-13T01:07:51.638Z,0.17
2023-01-13T01:08:55.170Z,0.30
2023-01-13T01:09:56.864Z,0.25
2023-01-13T01:11:04.002Z,0.20
2023-01-13T01:12:05.985Z,0.30
2023-01-13T01:13:08.629Z,0.43
2023-01-13T01:14:12.052Z,0.20
2023-01-13T01:15:14.765Z,0.10
2023-01-13T01:16:17.748Z,0.30
2023-01-13T01:17:20.499Z,0.20
2023-01-13T01:18:22.172Z,0.30
2023-01-13T01:19:24.917Z,0.30
2023-01-13T01:20:26.643Z,0.30
2023-01-13T01:21:30.768Z,0.40
2023-01-13T01:22:33.481Z,0.40
2023-01-13T01:23:36.448Z,0.20
2023-01-13T01:24:39.308Z,0.30
2023-01-13T01:25:40.982Z,0.30
2023-01-13T01:26:43.616Z,0.40
2023-01-13T01:27:45.272Z,0.13
2023-01-13T01:28:48.707Z,0.20
2023-01-13T01:29:50.388Z,0.40
2023-01-13T01:30:54.426Z,0.32
2023-01-13T01:31:58.489Z,0.20
2023-01-13T01:33:03.066Z,0.22
2023-01-13T01:34:05.744Z,0.40
2023-01-13T01:35:07.925Z,0.40
2023-01-13T01:36:15.486Z,0.20
2023-01-13T01:37:18.554Z,0.20
2023-01-13T01:38:23.318Z,0.32
2023-01-13T01:39:26.122Z,0.25
2023-01-13T01:40:27.815Z,0.30
2023-01-13T01:41:32.746Z,0.40
2023-01-13T01:42:53.093Z,0.30
2023-01-13T01:43:59.541Z,0.17
2023-01-13T01:45:03.046Z,0.45
2023-01-13T01:46:06.099Z,0.40
2023-01-13T01:47:08.415Z,0.15
2023-01-13T01:48:12.030Z,0.30
2023-01-13T01:49:16.611Z,0.30
2023-01-13T01:50:19.868Z,0.30
2023-01-13T01:51:21.845Z,0.20
2023-01-13T01:52:29.072Z,0.30
2023-01-13T01:53:32.677Z,0.20
2023-01-13T01:54:40.308Z,0.20
2023-01-13T01:55:42.506Z,0.30
2023-01-13T01:56:45.745Z,0.25
2023-01-13T01:57:50.932Z,0.38
2023-01-13T01:58:55.099Z,0.45
2023-01-13T01:59:58.036Z,0.10
2023-01-13T02:01:01.045Z,0.40
2023-01-13T02:02:03.073Z,0.47
2023-01-13T02:03:07.656Z,0.43
2023-01-13T02:04:12.962Z,0.35
2023-01-13T02:05:15.777Z,0.40
2023-01-13T02:06:17.471Z,0.10
2023-01-13T02:07:22.366Z,0.20
2023-01-13T02:08:25.405Z,0.15
2023-01-13T02:09:28.418Z,0.22
2023-01-13T02:10:30.686Z,0.20
2023-01-13T02:11:52.191Z,0.40
2023-01-13T02:12:55.568Z,0.25
2023-01-13T02:13:57.267Z,0.20
2023-01-13T02:15:03.147Z,0.20
2023-01-13T02:16:09.217Z,0.30
2023-01-13T02:17:22.057Z,0.20
2023-01-13T02:18:38.242Z,0.10
2023-01-13T02:20:24.466Z,0.17
2023-01-13T02:21:51.274Z,0.22
2023-01-13T02:23:31.765Z,0.30
2023-01-13T02:24:56.367Z,0.20
2023-01-13T02:26:10.742Z,0.25
2023-01-13T02:27:45.993Z,0.20
2023-01-13T02:29:18.198Z,0.30
2023-01-13T02:30:47.724Z,0.40
2023-01-13T02:31:51.519Z,0.17
2023-01-13T02:33:03.180Z,0.30
2023-01-13T02:34:07.878Z,0.15
2023-01-13T02:35:15.691Z,0.13
2023-01-13T02:36:23.841Z,0.20
2023-01-13T02:37:29.821Z,0.28
2023-01-13T02:38:35.406Z,0.52
2023-01-13T02:39:41.793Z,0.28
2023-01-13T02:40:47.601Z,0.28
2023-01-13T02:42:12.873Z,0.10
2023-01-13T02:43:36.307Z,0.20
2023-01-13T02:44:43.807Z,0.20
2023-01-13T02:45:51.217Z,0.25
2023-01-13T02:46:56.369Z,0.30
2023-01-13T02:47:59.325Z,0.20
2023-01-13T02:49:05.607Z,0.20
2023-01-13T02:50:12.307Z,0.13
2023-01-13T02:51:15.832Z,0.45
2023-01-13T02:52:23.605Z,0.30
2023-01-13T02:53:28.115Z,0.38
2023-01-13T02:54:31.625Z,0.20
2023-01-13T02:55:35.117Z,0.20
2023-01-13T02:56:40.561Z,0.20
2023-01-13T02:57:43.295Z,0.35
2023-01-13T02:58:49.105Z,0.30
2023-01-13T02:59:54.247Z,0.20
2023-01-13T03:00:58.845Z,0.20
2023-01-13T03:02:01.460Z,0.20
2023-01-13T03:03:04.306Z,0.15
2023-01-13T03:04:13.198Z,0.20
2023-01-13T03:05:16.916Z,0.40
2023-01-13T03:06:32.632Z,0.30
2023-01-13T03:08:01.741Z,0.17
2023-01-13T03:09:08.242Z,0.25
2023-01-13T03:10:12.866Z,0.30
2023-01-13T03:11:16.951Z,0.17
2023-01-13T03:12:21.821Z,0.30
2023-01-13T03:13:41.815Z,0.20
2023-01-13T03:14:48.974Z,0.40
2023-01-13T03:15:56.348Z,0.30
2023-01-13T03:17:13.425Z,0.28
2023-01-13T03:18:23.345Z,0.20
2023-01-13T03:19:35.053Z,0.30
2023-01-13T03:20:41.492Z,0.20
2023-01-13T03:21:49.780Z,0.30
2023-01-13T03:22:56.585Z,0.38
2023-01-13T03:24:02.607Z,0.13
2023-01-13T03:25:09.762Z,0.20
2023-01-13T03:26:15.445Z,0.25
2023-01-13T03:27:22.277Z,0.20
2023-01-13T03:28:28.284Z,0.20
2023-01-13T03:29:36.247Z,0.20
2023-01-13T03:30:41.533Z,0.30
2023-01-13T03:31:49.029Z,0.13
2023-01-13T03:32:55.972Z,0.32
2023-01-13T03:34:01.074Z,0.40
2023-01-13T03:35:09.116Z,0.22
2023-01-13T03:36:14.317Z,0.22
2023-01-13T03:37:19.730Z,0.40
2023-01-13T03:38:26.311Z,0.30
2023-01-13T03:39:31.230Z,0.15
2023-01-13T03:40:35.835Z,0.20
2023-01-13T03:41:41.556Z,0.30
2023-01-13T03:43:07.105Z,0.20
2023-01-13T03:44:25.257Z,0.30
2023-01-13T03:45:27.369Z,0.30
2023-01-13T03:46:32.842Z,0.20
2023-01-13T03:47:39.482Z,0.25
2023-01-13T03:48:43.138Z,0.40
2023-01-13T03:49:51.200Z,0.45
2023-01-13T03:50:55.407Z,0.32
2023-01-13T03:51:59.876Z,0.17
2023-01-13T03:53:04.159Z,0.40
2023-01-13T03:54:10.044Z,0.20
2023-01-13T03:55:14.519Z,0.30
2023-01-13T03:56:21.347Z,0.40
2023-01-13T03:57:26.937Z,0.30
2023-01-13T03:58:31.582Z,0.30
2023-01-13T03:59:36.494Z,0.10
2023-01-13T04:00:43.537Z,0.20
2023-01-13T04:01:51.021Z,0.25
2023-01-13T04:02:55.972Z,0.30
2023-01-13T04:04:01.943Z,0.15
2023-01-13T04:05:06.994Z,0.30
2023-01-13T04:06:16.939Z,0.20
2023-01-13T04:07:28.220Z,0.35
2023-01-13T04:08:31.094Z,0.20
2023-01-13T04:09:40.090Z,0.30
2023-01-13T04:10:47.151Z,0.32
2023-01-13T04:11:52.272Z,0.30
2023-01-13T04:13:01.440Z,0.32
2023-01-13T04:14:03.846Z,0.55
2023-01-13T04:15:07.545Z,0.30
2023-01-13T04:16:11.209Z,0.28
2023-01-13T04:17:14.069Z,0.13
2023-01-13T04:18:17.412Z,0.40
2023-01-13T04:19:21.436Z,0.32
2023-01-13T04:20:23.151Z,0.20
2023-01-13T04:21:26.146Z,0.30
2023-01-13T04:22:27.916Z,0.20
2023-01-13T04:23:30.606Z,0.20
2023-01-13T04:24:32.308Z,0.20
2023-01-13T04:25:35.047Z,0.17
2023-01-13T04:26:36.743Z,0.30
2023-01-13T04:27:39.507Z,0.28
2023-01-13T04:28:41.267Z,0.30
2023-01-13T04:29:43.962Z,0.35
2023-01-13T04:30:46.053Z,0.20
2023-01-13T04:31:48.819Z,0.30
2023-01-13T04:32:50.509Z,0.22
2023-01-13T04:33:53.222Z,0.22
2023-01-13T04:34:56.275Z,0.20
2023-01-13T04:35:58.910Z,0.15
2023-01-13T04:37:01.632Z,0.20
2023-01-13T04:38:04.454Z,0.20
2023-01-13T04:39:07.280Z,0.20
2023-01-13T04:40:10.020Z,0.25
2023-01-13T04:41:12.707Z,0.30
2023-01-13T04:42:14.369Z,0.20
2023-01-13T04:43:17.708Z,0.30
2023-01-13T04:44:19.476Z,0.20
2023-01-13T04:45:22.157Z,0.20
2023-01-13T04:46:23.929Z,0.28
2023-01-13T04:47:26.684Z,0.30
2023-01-13T04:48:29.440Z,0.20
2023-01-13T04:49:31.262Z,0.32
2023-01-13T04:50:35.353Z,0.30
2023-01-13T04:51:37.041Z,0.15
2023-01-13T04:52:39.853Z,0.20
2023-01-13T04:53:41.512Z,0.20
2023-01-13T04:54:44.214Z,0.20
2023-01-13T04:55:47.851Z,0.30
2023-01-13T04:56:50.524Z,0.20
2023-01-13T04:57:52.715Z,0.30
2023-01-13T04:58:55.441Z,0.30
2023-01-13T04:59:57.136Z,0.10
2023-01-13T05:00:59.800Z,0.20
2023-01-13T05:02:01.759Z,0.25
2023-01-13T05:03:04.984Z,0.20
2023-01-13T05:04:07.405Z,0.30
2023-01-13T05:05:10.943Z,0.30
2023-01-13T05:06:14.051Z,0.30
2023-01-13T05:07:18.410Z,0.20
2023-01-13T05:08:20.207Z,0.25
2023-01-13T05:09:22.924Z,0.20
2023-01-13T05:10:24.974Z,0.20
2023-01-13T05:11:45.362Z,0.20
2023-01-13T05:13:05.718Z,0.13
2023-01-13T05:14:26.164Z,0.22
2023-01-13T05:15:46.482Z,0.20
2023-01-13T05:17:03.548Z,0.20
2023-01-13T05:18:05.549Z,0.32
2023-01-13T05:19:08.229Z,0.20
2023-01-13T05:20:11.517Z,0.40
2023-01-13T05:21:29.466Z,0.15
2023-01-13T05:22:49.543Z,0.25
2023-01-13T05:24:09.818Z,0.20
2023-01-13T05:25:27.029Z,0.20
2023-01-13T05:26:29.729Z,0.35
2023-01-13T05:27:32.036Z,0.22
2023-01-13T05:28:35.349Z,0.28
2023-01-13T05:29:37.110Z,0.30
2023-01-13T05:30:42.337Z,0.10
2023-01-13T05:31:44.010Z,0.30
2023-01-13T05:32:46.720Z,0.22
2023-01-13T05:33:49.432Z,0.20
2023-01-13T05:34:51.237Z,0.30
2023-01-13T05:35:54.065Z,0.20
2023-01-13T05:36:57.088Z,0.20
2023-01-13T05:37:59.724Z,0.28
2023-01-13T05:39:01.463Z,0.25
2023-01-13T05:40:37.256Z,0.20
2023-01-13T05:41:57.623Z,0.10
2023-01-13T05:43:27.927Z,0.32
2023-01-13T05:44:30.708Z,0.40
2023-01-13T05:45:32.476Z,0.40
2023-01-13T05:46:35.290Z,0.20
2023-01-13T05:47:37.245Z,0.50
2023-01-13T05:48:41.291Z,0.30
2023-01-13T05:49:43.058Z,0.40
2023-01-13T05:50:46.608Z,0.30
2023-01-13T05:51:48.265Z,0.25
2023-01-13T05:52:52.442Z,0.43
2023-01-13T05:53:54.170Z,0.30
2023-01-13T05:54:56.906Z,0.45
2023-01-13T05:55:59.741Z,0.20
2023-01-13T05:57:01.466Z,0.20
2023-01-13T05:58:04.190Z,0.30
2023-01-13T05:59:07.182Z,0.30
2023-01-13T06:00:10.068Z,0.25
2023-01-13T06:01:15.726Z,0.60
2023-01-13T06:02:17.397Z,0.50
2023-01-13T06:03:21.068Z,0.30
2023-01-13T06:04:22.801Z,0.35
2023-01-13T06:05:25.677Z,0.22
2023-01-13T06:06:28.374Z,0.20
2023-01-13T06:07:30.060Z,0.28
2023-01-13T06:08:34.119Z,0.38
2023-01-13T06:09:35.866Z,0.28
2023-01-13T06:10:38.541Z,0.20
2023-01-13T06:11:40.227Z,0.10
2023-01-13T06:12:43.922Z,0.20
2023-01-13T06:13:46.607Z,0.10
2023-01-13T06:14:48.363Z,0.10
2023-01-13T06:15:51.089Z,0.10
2023-01-13T06:16:52.821Z,0.10
2023-01-13T06:17:56.522Z,0.30
2023-01-13T06:18:58.206Z,0.10
2023-01-13T06:20:01.033Z,0.22
2023-01-13T06:21:04.822Z,0.30
2023-01-13T06:22:11.543Z,0.20
2023-01-13T06:23:14.242Z,0.50
2023-01-13T06:24:17.306Z,0.25
2023-01-13T06:25:25.217Z,0.22
2023-01-13T06:26:28.314Z,0.50
2023-01-13T06:27:31.597Z,0.47
2023-01-13T06:28:33.399Z,0.30
2023-01-13T06:29:36.137Z,0.15
2023-01-13T06:30:40.988Z,0.30
2023-01-13T06:31:43.004Z,0.30
2023-01-13T06:32:47.636Z,0.30
2023-01-13T06:33:51.084Z,0.30
2023-01-13T06:34:56.848Z,0.20
2023-01-13T06:36:01.915Z,0.17
2023-01-13T06:37:05.221Z,0.10
2023-01-13T06:38:09.570Z,0.17
2023-01-13T06:39:14.272Z,0.30
2023-01-13T06:40:17.818Z,0.15
2023-01-13T06:41:41.841Z,0.20
2023-01-13T06:43:01.936Z,0.10
2023-01-13T06:44:03.670Z,0.13
2023-01-13T06:45:07.133Z,0.13
2023-01-13T06:46:10.050Z,0.10
2023-01-13T06:47:11.886Z,0.20
2023-01-13T06:48:14.825Z,0.20
2023-01-13T06:49:16.594Z,0.10
2023-01-13T06:50:20.635Z,0.20
2023-01-13T06:51:23.355Z,0.10
2023-01-13T06:52:25.152Z,0.20
2023-01-13T06:53:27.822Z,0.15
2023-01-13T06:54:29.630Z,0.30
2023-01-13T06:55:33.672Z,0.30
2023-01-13T06:56:35.412Z,0.20
2023-01-13T06:57:48.892Z,0.32
2023-01-13T06:58:51.658Z,0.10
2023-01-13T06:59:53.558Z,0.10
2023-01-13T07:01:01.259Z,0.10
2023-01-13T07:02:03.295Z,0.13
2023-01-13T07:03:07.834Z,0.25
2023-01-13T07:04:09.681Z,0.20
2023-01-13T07:05:12.386Z,0.15
2023-01-13T07:06:15.102Z,0.10
2023-01-13T07:07:16.782Z,0.30
2023-01-13T07:08:19.581Z,0.40
2023-01-13T07:09:21.283Z,0.15
2023-01-13T07:10:24.063Z,0.22
2023-01-13T07:11:27.108Z,0.10
2023-01-13T07:12:29.972Z,0.17
2023-01-13T07:13:49.955Z,0.20
2023-01-13T07:15:10.370Z,0.15
2023-01-13T07:16:13.209Z,0.10
2023-01-13T07:17:15.073Z,0.20
2023-01-13T07:18:17.782Z,0.10
2023-01-13T07:19:23.613Z,0.10
2023-01-13T07:20:26.356Z,0.15
2023-01-13T07:21:29.053Z,0.10
2023-01-13T07:22:31.714Z,0.20
2023-01-13T07:23:35.818Z,0.20
2023-01-13T07:24:38.674Z,0.10
2023-01-13T07:25:40.411Z,0.20
2023-01-13T07:26:44.530Z,0.10
2023-01-13T07:27:47.185Z,0.20
2023-01-13T07:28:49.913Z,0.20
2023-01-13T07:29:51.665Z,0.20
2023-01-13T07:30:54.377Z,0.20
2023-01-13T07:31:57.215Z,0.20
2023-01-13T07:32:59.949Z,0.10
2023-01-13T07:34:04.926Z,0.20
2023-01-13T07:35:07.704Z,0.40
2023-01-13T07:36:10.753Z,0.10
2023-01-13T07:37:12.433Z,0.20
2023-01-13T07:38:15.375Z,0.17
2023-01-13T07:39:18.246Z,0.10
2023-01-13T07:40:21.293Z,0.20
2023-01-13T07:41:41.713Z,0.17
2023-01-13T07:43:03.539Z,0.10
2023-01-13T07:44:06.226Z,0.13
2023-01-13T07:45:12.222Z,0.20
2023-01-13T07:46:15.220Z,0.30
2023-01-13T07:47:17.942Z,0.20
2023-01-13T07:48:19.758Z,0.10
2023-01-13T07:49:22.464Z,0.20
2023-01-13T07:50:24.381Z,0.35
2023-01-13T07:51:27.032Z,0.20
2023-01-13T07:52:28.728Z,0.30
2023-01-13T07:53:31.689Z,0.22
2023-01-13T07:54:40.773Z,0.30
2023-01-13T07:55:43.580Z,0.20
2023-01-13T07:56:46.262Z,0.30
2023-01-13T07:57:49.553Z,0.20
2023-01-13T07:58:52.996Z,0.20
2023-01-13T07:59:55.763Z,0.30
2023-01-13T08:00:57.964Z,0.20
2023-01-13T08:02:01.092Z,0.10
2023-01-13T08:03:03.963Z,0.22
2023-01-13T08:04:06.808Z,0.20
2023-01-13T08:05:09.458Z,0.20
2023-01-13T08:06:13.331Z,0.30
2023-01-13T08:07:15.048Z,0.38
2023-01-13T08:08:17.960Z,0.30
2023-01-13T08:09:19.725Z,0.30
2023-01-13T08:10:22.486Z,0.25
2023-01-13T08:11:24.193Z,0.40
2023-01-13T08:12:52.181Z,0.20
2023-01-13T08:14:00.309Z,0.20
2023-01-13T08:15:02.052Z,0.20
2023-01-13T08:16:06.627Z,0.28
2023-01-13T08:17:09.739Z,0.10
2023-01-13T08:18:12.461Z,0.17
2023-01-13T08:19:15.326Z,0.10
2023-01-13T08:20:17.260Z,0.17
2023-01-13T08:21:19.958Z,0.45
2023-01-13T08:22:22.760Z,0.22
2023-01-13T08:23:25.503Z,0.30
2023-01-13T08:24:27.209Z,0.25
2023-01-13T08:25:30.891Z,0.20
2023-01-13T08:26:33.633Z,0.20
2023-01-13T08:27:35.446Z,0.40
2023-01-13T08:28:40.409Z,0.40
2023-01-13T08:29:43.475Z,0.22
2023-01-13T08:30:46.262Z,0.30
2023-01-13T08:31:49.107Z,0.30
2023-01-13T08:32:50.841Z,0.47
2023-01-13T08:33:53.580Z,0.20
2023-01-13T08:34:55.726Z,0.40
2023-01-13T08:35:58.799Z,0.30
2023-01-13T08:37:01.601Z,0.40
2023-01-13T08:38:03.374Z,0.30
2023-01-13T08:39:06.142Z,0.20
2023-01-13T08:40:09.947Z,0.30
2023-01-13T08:41:13.951Z,0.13
2023-01-13T08:42:15.797Z,0.28
2023-01-13T08:43:18.601Z,0.45
2023-01-13T08:44:24.288Z,0.30
2023-01-13T08:45:28.413Z,0.20
2023-01-13T08:46:34.104Z,0.20
2023-01-13T08:47:36.083Z,0.35
2023-01-13T08:48:38.754Z,0.30
2023-01-13T08:49:41.648Z,0.20
2023-01-13T08:50:44.444Z,0.40
2023-01-13T08:51:46.975Z,0.30
2023-01-13T08:52:49.663Z,0.10
2023-01-13T08:53:52.372Z,0.10
2023-01-13T08:54:54.170Z,0.10
2023-01-13T08:55:57.189Z,0.28
2023-01-13T08:57:00.241Z,0.30
2023-01-13T08:58:14.693Z,0.20
2023-01-13T08:59:20.069Z,0.40
2023-01-13T09:00:23.457Z,0.30
2023-01-13T09:01:27.767Z,0.20
2023-01-13T09:02:30.773Z,0.30
2023-01-13T09:03:34.581Z,0.40
2023-01-13T09:04:37.551Z,0.60
2023-01-13T09:05:40.428Z,0.50
2023-01-13T09:06:42.137Z,0.30
2023-01-13T09:07:45.084Z,0.38
2023-01-13T09:08:47.573Z,0.20
2023-01-13T09:09:51.331Z,0.32
2023-01-13T09:10:57.067Z,0.25
2023-01-13T09:12:28.880Z,0.20
2023-01-13T09:13:30.612Z,0.20
2023-01-13T09:14:35.074Z,0.30
2023-01-13T09:15:37.169Z,0.28
2023-01-13T09:16:41.312Z,0.30
2023-01-13T09:17:44.050Z,0.30
2023-01-13T09:18:45.855Z,0.20
2023-01-13T09:19:48.763Z,0.20
2023-01-13T09:20:50.509Z,0.30
2023-01-13T09:21:53.706Z,0.35
2023-01-13T09:22:56.510Z,0.43
2023-01-13T09:23:58.410Z,0.40
2023-01-13T09:25:01.205Z,0.43
2023-01-13T09:26:03.025Z,0.60
2023-01-13T09:27:05.911Z,0.40
2023-01-13T09:28:09.088Z,0.22
2023-01-13T09:29:10.866Z,0.20
2023-01-13T09:30:14.224Z,0.22
2023-01-13T09:31:15.948Z,0.40
2023-01-13T09:32:19.998Z,0.20
2023-01-13T09:33:40.114Z,0.30
2023-01-13T09:35:00.379Z,0.20
2023-01-13T09:36:03.192Z,0.40
2023-01-13T09:37:06.757Z,0.30
2023-01-13T09:38:09.525Z,0.28
2023-01-13T09:39:11.307Z,0.17
2023-01-13T09:40:18.168Z,0.30
2023-01-13T09:41:39.543Z,0.32
2023-01-13T09:43:03.980Z,0.38
2023-01-13T09:44:09.825Z,0.30
2023-01-13T09:45:15.642Z,0.47
2023-01-13T09:46:34.705Z,0.60
2023-01-13T09:47:43.487Z,0.45
2023-01-13T09:48:52.100Z,0.60
2023-01-13T09:49:55.695Z,0.35
2023-01-13T09:51:03.545Z,0.28
2023-01-13T09:52:10.021Z,0.30
2023-01-13T09:53:16.610Z,0.45
2023-01-13T09:54:25.892Z,0.70
2023-01-13T09:55:32.004Z,0.30
2023-01-13T09:56:34.690Z,0.30
2023-01-13T09:57:39.898Z,0.40
2023-01-13T09:58:43.132Z,0.50
2023-01-13T09:59:46.507Z,0.38
2023-01-13T10:00:59.257Z,0.45
2023-01-13T10:02:08.879Z,0.35
2023-01-13T10:03:22.593Z,0.43
2023-01-13T10:04:25.347Z,0.50
2023-01-13T10:05:32.534Z,0.30
2023-01-13T10:06:36.923Z,0.40
2023-01-13T10:07:44.107Z,0.22
2023-01-13T10:08:48.559Z,0.70
2023-01-13T10:09:53.905Z,0.40
2023-01-13T10:11:01.927Z,0.90
2023-01-13T10:12:24.222Z,0.40
2023-01-13T10:13:28.408Z,0.43
2023-01-13T10:14:36.211Z,0.45
2023-01-13T10:15:38.004Z,0.30
2023-01-13T10:16:45.527Z,0.45
2023-01-13T10:17:50.991Z,0.43
2023-01-13T10:19:04.779Z,0.40
2023-01-13T10:20:16.233Z,0.30
2023-01-13T10:21:32.542Z,0.40
2023-01-13T10:22:46.982Z,0.30
2023-01-13T10:23:56.034Z,0.57
2023-01-13T10:25:20.300Z,0.30
2023-01-13T10:26:35.230Z,0.50
2023-01-13T10:27:38.229Z,0.68
2023-01-13T10:28:40.941Z,0.40
2023-01-13T10:29:42.724Z,0.30
2023-01-13T10:30:47.019Z,0.40
2023-01-13T10:31:48.723Z,0.30
2023-01-13T10:32:58.155Z,0.47
2023-01-13T10:34:04.094Z,0.55
2023-01-13T10:35:06.223Z,0.40
2023-01-13T10:36:14.873Z,0.60
2023-01-13T10:37:21.795Z,0.52
2023-01-13T10:38:26.318Z,0.30
2023-01-13T10:39:30.149Z,0.40
2023-01-13T10:40:32.927Z,0.47
2023-01-13T10:41:36.231Z,0.47
2023-01-13T10:42:37.899Z,0.40
2023-01-13T10:43:41.808Z,0.43
2023-01-13T10:44:48.585Z,0.55
2023-01-13T10:45:59.574Z,0.52
2023-01-13T10:47:02.250Z,0.52
2023-01-13T10:48:08.317Z,0.50
2023-01-13T10:49:36.218Z,0.65
2023-01-13T10:50:38.732Z,0.40
2023-01-13T10:51:45.167Z,0.47
2023-01-13T10:53:18.712Z,0.40
2023-01-13T10:54:23.771Z,0.50
2023-01-13T10:55:27.959Z,0.40
2023-01-13T10:56:32.466Z,0.38
2023-01-13T10:57:37.567Z,0.40
2023-01-13T10:58:39.282Z,0.55
2023-01-13T10:59:41.975Z,0.60
2023-01-13T11:00:43.817Z,0.63
2023-01-13T11:01:59.000Z,0.65
2023-01-13T11:03:19.072Z,0.32
2023-01-13T11:04:38.236Z,0.30
2023-01-13T11:05:40.218Z,0.50
2023-01-13T11:06:46.691Z,0.70
2023-01-13T11:07:52.446Z,0.50
2023-01-13T11:08:58.208Z,0.82
2023-01-13T11:10:17.877Z,0.45
2023-01-13T11:11:30.403Z,0.50
2023-01-13T11:12:35.189Z,0.50
2023-01-13T11:14:01.266Z,0.30
2023-01-13T11:15:06.000Z,0.38
2023-01-13T11:16:12.164Z,0.35
2023-01-13T11:17:29.062Z,0.32
2023-01-13T11:18:40.854Z,0.50
2023-01-13T11:19:48.123Z,0.50
2023-01-13T11:20:52.430Z,0.73
2023-01-13T11:21:58.143Z,0.80
2023-01-13T11:23:04.715Z,0.50
2023-01-13T11:24:13.043Z,0.45
2023-01-13T11:25:19.472Z,0.40
2023-01-13T11:26:27.213Z,0.30
2023-01-13T11:27:38.525Z,0.55
2023-01-13T11:28:47.604Z,0.40
2023-01-13T11:30:00.172Z,0.20
2023-01-13T11:31:06.755Z,0.45
2023-01-13T11:32:11.976Z,0.30
2023-01-13T11:33:34.236Z,0.52
2023-01-13T11:34:38.513Z,0.38
2023-01-13T11:35:45.822Z,0.50
2023-01-13T11:36:51.821Z,0.38
2023-01-13T11:37:56.761Z,0.30
2023-01-13T11:39:03.204Z,0.60
2023-01-13T11:40:12.618Z,0.32
2023-01-13T11:41:22.424Z,0.40
2023-01-13T11:42:26.948Z,0.52
2023-01-13T11:43:32.761Z,0.60
2023-01-13T11:44:40.090Z,0.32
2023-01-13T11:45:47.589Z,0.63
2023-01-13T11:46:51.464Z,0.50
2023-01-13T11:47:57.251Z,0.73
2023-01-13T11:49:01.341Z,0.88
2023-01-13T11:50:04.361Z,0.70
2023-01-13T11:51:18.489Z,0.70
2023-01-13T11:52:23.834Z,0.75
2023-01-13T11:53:35.753Z,0.70
2023-01-13T11:55:05.924Z,0.50
2023-01-13T11:56:19.634Z,0.50
2023-01-13T11:57:53.340Z,0.98
2023-01-13T11:59:09.749Z,0.40
2023-01-13T12:00:47.999Z,0.43
2023-01-13T12:02:01.994Z,0.30
2023-01-13T12:03:20.007Z,0.57
2023-01-13T12:04:27.400Z,0.35
2023-01-13T12:05:36.595Z,0.35
2023-01-13T12:06:40.827Z,0.50
2023-01-13T12:07:50.235Z,0.60
2023-01-13T12:09:17.699Z,0.50
2023-01-13T12:10:32.150Z,0.30
2023-01-13T12:11:58.274Z,1.02
2023-01-13T12:13:07.794Z,0.50
2023-01-13T12:14:19.321Z,0.70
2023-01-13T12:15:36.603Z,0.50
2023-01-13T12:16:46.624Z,0.90
2023-01-13T12:17:56.773Z,0.65
2023-01-13T12:19:20.128Z,0.80
2023-01-13T12:20:26.877Z,0.60
2023-01-13T12:21:31.692Z,0.80
2023-01-13T12:22:36.972Z,0.43
2023-01-13T12:23:43.658Z,0.82
2023-01-13T12:24:50.343Z,0.70
2023-01-13T12:25:56.303Z,0.65
2023-01-13T12:27:01.876Z,0.50
2023-01-13T12:28:07.735Z,0.68
2023-01-13T12:29:14.210Z,0.80
2023-01-13T12:30:24.211Z,1.00
2023-01-13T12:31:28.270Z,0.88
2023-01-13T12:32:34.690Z,0.70
2023-01-13T12:33:45.702Z,0.50
2023-01-13T12:35:03.695Z,0.50
2023-01-13T12:36:10.517Z,0.85
2023-01-13T12:37:20.795Z,0.50
2023-01-13T12:38:34.327Z,0.80
2023-01-13T12:39:44.491Z,0.68
2023-01-13T12:40:55.345Z,0.60
2023-01-13T12:42:18.927Z,0.70
2023-01-13T12:43:40.427Z,0.77
2023-01-13T12:45:08.084Z,0.50
2023-01-13T12:46:36.229Z,0.70
2023-01-13T12:47:41.363Z,0.63
2023-01-13T12:49:00.269Z,0.70
2023-01-13T12:50:36.413Z,0.60
2023-01-13T12:52:07.921Z,0.77
2023-01-13T12:53:38.515Z,0.60
2023-01-13T12:55:15.015Z,0.40
2023-01-13T12:56:23.193Z,0.38
2023-01-13T12:57:27.212Z,0.75
2023-01-13T12:58:30.302Z,0.70
2023-01-13T12:59:35.704Z,0.50
2023-01-13T13:00:55.182Z,0.70
2023-01-13T13:02:26.430Z,0.43
2023-01-13T13:03:32.073Z,0.60
2023-01-13T13:04:43.154Z,0.63
2023-01-13T13:05:49.964Z,0.50
2023-01-13T13:06:55.751Z,0.52
2023-01-13T13:08:05.806Z,0.40
2023-01-13T13:09:19.557Z,0.57
2023-01-13T13:10:28.103Z,1.10
2023-01-13T13:12:03.143Z,0.50
2023-01-13T13:13:20.589Z,0.65
2023-01-13T13:15:03.130Z,0.57
2023-01-13T13:17:01.180Z,0.65
2023-01-13T13:18:21.489Z,0.40
2023-01-13T13:19:49.197Z,0.50
2023-01-13T13:21:10.061Z,0.90
2023-01-13T13:22:37.042Z,0.75
2023-01-13T13:23:47.821Z,0.60
2023-01-13T13:25:28.881Z,0.40
2023-01-13T13:26:45.744Z,0.70
2023-01-13T13:27:53.416Z,0.90
2023-01-13T13:29:07.345Z,0.40
2023-01-13T13:30:14.629Z,0.70
2023-01-13T13:31:24.257Z,0.30
2023-01-13T13:32:56.220Z,0.30
2023-01-13T13:34:13.387Z,0.47
2023-01-13T13:35:24.972Z,0.40
2023-01-13T13:36:43.021Z,0.22
2023-01-13T13:38:09.523Z,0.82
2023-01-13T13:39:39.779Z,0.80
2023-01-13T13:41:04.654Z,1.00
2023-01-13T13:42:31.734Z,0.60
2023-01-13T13:43:59.146Z,0.47
2023-01-13T13:45:20.643Z,0.73
2023-01-13T13:46:46.641Z,0.43
2023-01-13T13:47:49.333Z,0.50
2023-01-13T13:48:52.734Z,0.80
2023-01-13T13:49:56.387Z,0.38
2023-01-13T13:51:02.287Z,0.65
2023-01-13T13:52:10.910Z,0.60
2023-01-13T13:53:13.759Z,0.60
2023-01-13T13:54:18.753Z,0.65
2023-01-13T13:55:23.668Z,0.85
2023-01-13T13:56:27.953Z,0.75
2023-01-13T13:57:36.961Z,0.52
2023-01-13T13:58:41.262Z,0.70
2023-01-13T13:59:43.197Z,0.70
2023-01-13T14:00:48.726Z,0.52
2023-01-13T14:02:00.909Z,0.65
2023-01-13T14:03:06.651Z,0.68
2023-01-13T14:04:15.751Z,0.55
2023-01-13T14:05:20.771Z,0.52
2023-01-13T14:06:24.618Z,0.68
2023-01-13T14:07:28.132Z,0.50
2023-01-13T14:08:32.684Z,0.52
2023-01-13T14:09:41.738Z,0.40
2023-01-13T14:10:46.312Z,0.47
2023-01-13T14:12:02.505Z,0.47
2023-01-13T14:13:15.535Z,0.63
2023-01-13T14:14:21.012Z,0.55
2023-01-13T14:15:35.264Z,0.50
2023-01-13T14:16:38.501Z,0.57
2023-01-13T14:17:41.156Z,1.02
2023-01-13T14:18:46.437Z,0.50
2023-01-13T14:19:52.242Z,0.45
2023-01-13T14:20:56.399Z,0.40
2023-01-13T14:22:06.185Z,0.40
2023-01-13T14:23:16.231Z,0.40
2023-01-13T14:24:20.543Z,0.40
2023-01-13T14:25:31.830Z,0.50
2023-01-13T14:26:33.495Z,0.22
2023-01-13T14:27:44.096Z,0.60
2023-01-13T14:28:46.826Z,0.68
2023-01-13T14:29:48.940Z,0.30
2023-01-13T14:30:52.221Z,0.90
2023-01-13T14:32:04.823Z,0.63
2023-01-13T14:33:18.672Z,0.40
2023-01-13T14:34:31.265Z,0.47
2023-01-13T14:35:35.420Z,0.80
2023-01-13T14:36:38.986Z,0.47
2023-01-13T14:37:43.461Z,0.55
2023-01-13T14:38:49.414Z,0.55
2023-01-13T14:39:52.073Z,0.57
2023-01-13T14:40:55.184Z,0.65
2023-01-13T14:41:57.825Z,0.73
2023-01-13T14:43:02.668Z,0.60
2023-01-13T14:44:13.355Z,0.73
2023-01-13T14:45:23.131Z,0.80
2023-01-13T14:46:25.660Z,0.50
2023-01-13T14:47:32.224Z,0.63
2023-01-13T14:48:35.904Z,0.52
2023-01-13T14:49:40.313Z,0.98
2023-01-13T14:50:46.339Z,0.88
2023-01-13T14:51:49.207Z,1.00